Time;durP1;ratioP1;P1;durP2;ratioP2;P2;SDS_P1;SDS_P2;PMS_P1;PMS_P2;Temp;Humidity;BMP_temperature;BMP_pressure;BME280_temperature;BME280_humidity;BME280_pressure;Samples;Min_cycle;Max_cycle;Signal;HPM_P1;HPM_P2
2023/08/28 00:01:58;;;;;;;3.00;2.80;;;20.30;99.90;;;;;;4974656;28;20459;-84
2023/08/28 00:04:25;;;;;;;3.00;2.80;;;20.30;99.90;;;;;;4975345;28;20537;-82
2023/08/28 00:06:52;;;;;;;3.20;2.10;;;20.20;99.90;;;;;;4975037;28;20474;-85
2023/08/28 00:09:21;;;;;;;3.30;2.97;;;20.20;99.90;;;;;;4976120;28;20471;-84
2023/08/28 00:11:48;;;;;;;3.33;3.00;;;20.10;99.90;;;;;;4976278;28;20471;-83
2023/08/28 00:14:15;;;;;;;2.50;2.30;;;20.10;99.90;;;;;;4975931;28;20964;-84
2023/08/28 00:16:42;;;;;;;2.67;2.47;;;20.10;99.90;;;;;;4975431;28;20860;-84
2023/08/28 00:19:09;;;;;;;2.17;2.03;;;20.00;99.90;;;;;;4976106;28;20525;-82
2023/08/28 00:21:36;;;;;;;2.33;2.23;;;20.00;99.90;;;;;;4980038;28;20778;-82
2023/08/28 00:24:04;;;;;;;2.73;2.20;;;20.00;99.90;;;;;;4985489;28;20526;-84
2023/08/28 00:26:32;;;;;;;3.10;2.43;;;20.00;99.90;;;;;;4986400;28;20470;-82
2023/08/28 00:29:00;;;;;;;2.50;2.30;;;19.90;99.90;;;;;;4983086;28;20466;-83
2023/08/28 00:31:27;;;;;;;2.87;2.40;;;19.90;99.90;;;;;;4985286;28;20475;-81
2023/08/28 00:33:54;;;;;;;2.27;2.07;;;19.90;99.90;;;;;;4986720;28;20969;-83
2023/08/28 00:36:21;;;;;;;1.83;1.70;;;19.80;99.90;;;;;;4978691;28;20486;-85
2023/08/28 00:38:48;;;;;;;1.97;1.77;;;19.80;99.90;;;;;;4974566;28;20479;-85
2023/08/28 00:41:16;;;;;;;2.00;1.90;;;19.70;99.90;;;;;;4975350;28;20478;-83
2023/08/28 00:43:44;;;;;;;1.73;1.63;;;19.70;99.90;;;;;;4972805;28;20481;-84
2023/08/28 00:46:12;;;;;;;1.87;1.67;;;19.60;99.90;;;;;;4975078;28;20549;-85
2023/08/28 00:48:41;;;;;;;3.63;2.83;;;19.60;99.90;;;;;;4975181;28;20482;-85
2023/08/28 00:51:08;;;;;;;2.43;2.30;;;19.60;99.90;;;;;;4974575;28;20459;-84
2023/08/28 00:53:36;;;;;;;2.73;2.53;;;19.50;99.90;;;;;;4976444;28;20482;-82
2023/08/28 00:56:04;;;;;;;2.30;2.00;;;19.50;99.90;;;;;;4978149;28;20490;-85
2023/08/28 00:58:31;;;;;;;2.33;2.13;;;19.50;99.90;;;;;;4978790;28;20545;-84
2023/08/28 01:01:02;;;;;;;1.63;1.53;;;19.40;99.90;;;;;;4977647;28;20471;-84
2023/08/28 01:03:29;;;;;;;3.10;1.83;;;19.40;99.90;;;;;;4978392;28;20477;-84
2023/08/28 01:06:07;;;;;;;1.53;1.40;;;19.40;99.90;;;;;;4977745;28;20482;-84
2023/08/28 01:08:42;;;;;;;2.60;1.93;;;19.30;99.90;;;;;;4978486;28;20812;-85
2023/08/28 01:11:15;;;;;;;2.87;1.90;;;19.20;99.90;;;;;;4978259;28;20517;-83
2023/08/28 01:13:48;;;;;;;1.60;1.50;;;19.20;99.90;;;;;;4980451;28;20471;-84
2023/08/28 01:16:20;;;;;;;1.37;1.27;;;19.10;99.90;;;;;;4977787;28;20479;-83
2023/08/28 01:18:46;;;;;;;1.57;1.47;;;19.00;99.90;;;;;;4977986;28;20474;-84
2023/08/28 01:21:14;;;;;;;1.70;1.60;;;19.00;99.90;;;;;;4977619;28;20508;-84
2023/08/28 01:23:47;;;;;;;1.97;1.80;;;19.00;99.90;;;;;;4977472;28;20471;-82
2023/08/28 01:26:17;;;;;;;3.03;1.93;;;18.90;99.90;;;;;;4977684;28;20910;-83
2023/08/28 01:28:44;;;;;;;2.27;1.60;;;18.90;99.90;;;;;;4977966;28;20533;-82
2023/08/28 01:31:11;;;;;;;2.47;1.77;;;18.90;99.90;;;;;;4977143;28;20812;-82
2023/08/28 01:33:38;;;;;;;2.27;2.07;;;18.80;99.90;;;;;;4983340;28;20475;-84
2023/08/28 01:36:13;;;;;;;1.93;1.77;;;18.80;99.90;;;;;;4977543;28;20474;-82
2023/08/28 01:38:50;;;;;;;1.50;1.37;;;18.80;99.90;;;;;;4977282;28;20471;-83
2023/08/28 01:41:22;;;;;;;1.60;1.50;;;18.80;99.90;;;;;;4977212;28;20471;-84
2023/08/28 01:43:51;;;;;;;4.20;2.00;;;18.80;99.90;;;;;;4979797;28;20485;-84
2023/08/28 01:46:20;;;;;;;1.90;1.67;;;18.70;99.90;;;;;;4977242;28;21000;-84
2023/08/28 01:48:52;;;;;;;1.67;1.57;;;18.70;99.90;;;;;;4978235;28;20815;-82
2023/08/28 01:51:19;;;;;;;1.83;1.70;;;18.70;99.90;;;;;;4977401;28;20466;-82
2023/08/28 01:53:46;;;;;;;1.70;1.60;;;18.60;99.90;;;;;;4977724;28;20843;-82
2023/08/28 01:56:19;;;;;;;2.63;1.63;;;18.60;99.90;;;;;;4977347;28;20964;-82
2023/08/28 01:58:47;;;;;;;1.70;1.60;;;18.60;99.90;;;;;;4977252;28;20797;-82
2023/08/28 02:01:15;;;;;;;4.60;2.33;;;18.60;99.90;;;;;;4977020;28;20475;-82
2023/08/28 02:03:42;;;;;;;3.57;2.90;;;18.50;99.90;;;;;;4977375;28;20525;-82
2023/08/28 02:06:09;;;;;;;2.50;2.30;;;18.50;99.90;;;;;;4976878;28;20475;-83
2023/08/28 02:08:37;;;;;;;2.07;1.97;;;18.50;99.90;;;;;;4977216;28;20533;-82
2023/08/28 02:11:04;;;;;;;2.57;2.10;;;18.50;99.90;;;;;;4976474;28;20479;-83
2023/08/28 02:13:32;;;;;;;3.00;2.70;;;18.40;99.90;;;;;;4978981;28;20976;-83
2023/08/28 02:16:00;;;;;;;2.97;2.67;;;18.40;99.90;;;;;;4980581;28;20557;-82
2023/08/28 02:18:27;;;;;;;3.37;3.07;;;18.40;99.90;;;;;;4977614;28;20463;-82
2023/08/28 02:20:54;;;;;;;3.60;2.67;;;18.40;99.90;;;;;;4985477;28;20467;-82
2023/08/28 02:23:21;;;;;;;2.90;2.33;;;18.30;99.90;;;;;;4971665;28;20466;-82
2023/08/28 02:25:49;;;;;;;3.00;2.20;;;18.30;99.90;;;;;;4996748;28;20530;-84
2023/08/28 02:28:18;;;;;;;3.60;2.80;;;18.30;99.90;;;;;;4991758;28;20466;-84
2023/08/28 02:30:46;;;;;;;2.00;1.80;;;18.30;99.90;;;;;;4979415;28;20565;-84
2023/08/28 02:33:13;;;;;;;3.17;2.10;;;18.30;99.90;;;;;;4977754;28;20812;-84
2023/08/28 02:35:40;;;;;;;2.53;2.33;;;18.20;99.90;;;;;;4977517;28;20547;-84
2023/08/28 02:38:08;;;;;;;5.37;1.97;;;18.20;99.90;;;;;;4977645;28;20499;-84
2023/08/28 02:40:37;;;;;;;2.33;2.13;;;18.20;99.90;;;;;;4985150;28;20531;-82
2023/08/28 02:43:06;;;;;;;2.30;2.10;;;18.20;99.90;;;;;;4986755;28;20469;-83
2023/08/28 02:45:39;;;;;;;2.37;2.27;;;18.10;99.90;;;;;;4988732;28;20542;-83
2023/08/28 02:48:09;;;;;;;2.67;2.20;;;18.10;99.90;;;;;;4986946;28;20495;-81
2023/08/28 02:50:36;;;;;;;5.90;1.97;;;18.00;99.90;;;;;;4988277;28;20471;-81
2023/08/28 02:53:04;;;;;;;1.83;1.73;;;18.00;99.90;;;;;;4987215;28;20462;-82
2023/08/28 02:55:31;;;;;;;1.87;1.77;;;18.00;99.90;;;;;;4976519;28;20477;-83
2023/08/28 02:57:58;;;;;;;2.70;2.40;;;18.00;99.90;;;;;;4983001;28;20473;-85
2023/08/28 03:00:26;;;;;;;3.03;2.50;;;17.90;99.90;;;;;;4993510;28;20467;-84
2023/08/28 03:02:53;;;;;;;3.47;2.97;;;17.90;99.90;;;;;;4986561;28;20474;-81
2023/08/28 03:05:21;;;;;;;4.17;3.33;;;17.90;99.90;;;;;;4984198;28;21004;-84
2023/08/28 03:07:48;;;;;;;4.77;4.37;;;17.90;99.90;;;;;;4993053;28;20494;-83
2023/08/28 03:10:15;;;;;;;4.30;3.93;;;17.90;99.90;;;;;;4983816;28;20474;-82
2023/08/28 03:12:43;;;;;;;3.93;3.63;;;17.90;99.90;;;;;;4977904;28;20529;-82
2023/08/28 03:15:12;;;;;;;4.10;3.70;;;17.80;99.90;;;;;;4975628;28;20533;-82
2023/08/28 03:17:39;;;;;;;3.20;2.90;;;17.80;99.90;;;;;;4975265;28;20462;-82
2023/08/28 03:20:09;;;;;;;3.27;2.97;;;17.80;99.90;;;;;;4975636;28;20533;-82
2023/08/28 03:22:37;;;;;;;2.67;2.47;;;17.80;99.90;;;;;;4974644;28;20800;-82
2023/08/28 03:25:05;;;;;;;3.90;2.30;;;17.80;99.90;;;;;;4977335;28;20537;-84
2023/08/28 03:27:33;;;;;;;2.37;2.17;;;17.80;99.90;;;;;;4976258;28;20474;-83
2023/08/28 03:30:00;;;;;;;4.23;2.40;;;17.80;99.90;;;;;;4976033;28;20498;-84
2023/08/28 03:32:27;;;;;;;4.10;2.80;;;17.80;99.90;;;;;;4975988;28;20506;-82
2023/08/28 03:34:54;;;;;;;2.37;2.07;;;17.80;99.90;;;;;;4975683;28;20514;-82
2023/08/28 03:37:21;;;;;;;3.03;2.63;;;17.80;99.90;;;;;;4974703;28;20494;-84
2023/08/28 03:39:49;;;;;;;2.53;2.33;;;17.80;99.90;;;;;;4975524;28;20454;-82
2023/08/28 03:42:16;;;;;;;2.80;2.00;;;17.80;99.90;;;;;;4975993;28;20533;-84
2023/08/28 03:44:43;;;;;;;4.00;3.03;;;17.80;99.90;;;;;;4975369;28;20471;-84
2023/08/28 03:47:12;;;;;;;2.70;2.50;;;17.70;99.90;;;;;;4976483;28;20521;-82
2023/08/28 03:49:39;;;;;;;2.73;2.53;;;17.70;99.90;;;;;;4976133;28;21307;-84
2023/08/28 03:52:06;;;;;;;2.60;2.40;;;17.70;99.90;;;;;;4976255;28;20981;-84
2023/08/28 03:54:34;;;;;;;3.23;2.67;;;17.70;99.90;;;;;;4975050;28;20467;-82
2023/08/28 03:57:02;;;;;;;2.67;2.47;;;17.60;99.90;;;;;;4975751;28;20474;-82
2023/08/28 03:59:33;;;;;;;3.70;2.77;;;17.60;99.90;;;;;;4980924;28;20557;-84
2023/08/28 04:02:02;;;;;;;3.53;3.10;;;17.60;99.90;;;;;;4974853;28;20463;-82
2023/08/28 04:04:32;;;;;;;3.70;2.57;;;17.60;99.90;;;;;;4975471;28;20583;-84
2023/08/28 04:07:01;;;;;;;2.73;2.53;;;17.60;99.90;;;;;;4976348;28;20463;-84
2023/08/28 04:09:29;;;;;;;3.07;2.87;;;17.60;99.90;;;;;;4976139;28;20873;-85
2023/08/28 04:11:56;;;;;;;3.00;2.80;;;17.60;99.90;;;;;;4976080;28;20948;-82
2023/08/28 04:14:25;;;;;;;2.80;2.60;;;17.60;99.90;;;;;;4975840;28;20510;-83
2023/08/28 04:16:53;;;;;;;3.73;2.97;;;17.60;99.90;;;;;;4974398;28;20521;-83
2023/08/28 04:19:20;;;;;;;3.20;2.90;;;17.60;99.90;;;;;;4974198;28;20856;-84
2023/08/28 04:21:47;;;;;;;3.60;3.30;;;17.60;99.90;;;;;;4984475;28;20482;-85
2023/08/28 04:24:14;;;;;;;2.97;2.67;;;17.50;99.90;;;;;;4976306;28;20863;-83
2023/08/28 04:26:43;;;;;;;4.77;3.27;;;17.50;99.90;;;;;;4974734;28;20467;-83
2023/08/28 04:29:11;;;;;;;3.93;3.60;;;17.50;99.90;;;;;;4977764;28;20467;-83
2023/08/28 04:31:40;;;;;;;4.93;4.10;;;17.50;99.90;;;;;;4980519;28;20790;-82
2023/08/28 04:34:07;;;;;;;4.20;3.13;;;17.50;99.90;;;;;;4979643;28;20478;-82
2023/08/28 04:36:33;;;;;;;6.83;4.70;;;17.50;99.90;;;;;;4979014;28;20485;-82
2023/08/28 04:39:00;;;;;;;5.57;4.97;;;17.50;99.90;;;;;;4978406;28;20470;-84
2023/08/28 04:41:27;;;;;;;6.77;6.17;;;17.50;99.90;;;;;;4978987;28;20529;-82
2023/08/28 04:43:55;;;;;;;6.10;4.83;;;17.50;99.90;;;;;;4977655;28;20478;-84
2023/08/28 04:46:22;;;;;;;5.47;4.80;;;17.50;99.90;;;;;;4979750;28;20510;-85
2023/08/28 04:48:50;;;;;;;5.07;4.67;;;17.50;99.90;;;;;;4978540;28;20467;-83
2023/08/28 04:51:17;;;;;;;5.40;4.90;;;17.50;99.90;;;;;;4978872;28;20474;-82
2023/08/28 04:53:44;;;;;;;7.77;6.97;;;17.50;99.90;;;;;;4978499;28;20470;-82
2023/08/28 04:56:33;;;;;;;7.40;5.20;;;17.50;99.90;;;;;;4981972;28;20471;-84
2023/08/28 04:59:01;;;;;;;11.23;6.20;;;17.50;99.90;;;;;;4977575;28;20467;-85
2023/08/28 05:01:29;;;;;;;7.53;4.60;;;17.50;99.90;;;;;;4981296;28;20466;-83
2023/08/28 05:03:57;;;;;;;8.13;6.20;;;17.40;99.90;;;;;;4977807;28;20474;-82
2023/08/28 05:06:24;;;;;;;6.43;5.23;;;17.50;99.90;;;;;;4979218;28;20868;-82
2023/08/28 05:08:54;;;;;;;6.33;4.50;;;17.50;99.90;;;;;;4978817;28;20471;-82
2023/08/28 05:11:21;;;;;;;6.27;5.30;;;17.50;99.90;;;;;;4978646;28;20948;-83
2023/08/28 05:13:48;;;;;;;7.20;6.30;;;17.50;99.90;;;;;;4977498;28;20533;-82
2023/08/28 05:16:15;;;;;;;7.37;5.53;;;17.50;99.90;;;;;;4977495;28;21051;-85
2023/08/28 05:18:42;;;;;;;5.80;5.30;;;17.50;99.90;;;;;;4979004;28;20467;-82
2023/08/28 05:21:10;;;;;;;4.90;4.50;;;17.50;99.90;;;;;;4979673;28;20482;-82
2023/08/28 05:23:38;;;;;;;5.47;4.90;;;17.50;99.90;;;;;;4979862;28;20557;-84
2023/08/28 05:26:05;;;;;;;8.43;4.43;;;17.50;99.90;;;;;;4977164;28;20474;-83
2023/08/28 05:28:34;;;;;;;6.33;4.60;;;17.50;99.90;;;;;;4979582;28;20465;-81
2023/08/28 05:31:03;;;;;;;6.67;4.87;;;17.60;99.90;;;;;;4977739;28;20502;-82
2023/08/28 05:33:31;;;;;;;5.13;4.40;;;17.60;99.90;;;;;;4978299;28;20529;-82
2023/08/28 05:35:58;;;;;;;5.57;4.50;;;17.60;99.90;;;;;;4977999;28;20479;-82
2023/08/28 05:38:26;;;;;;;7.17;5.37;;;17.60;99.90;;;;;;4976824;28;20481;-86
2023/08/28 05:40:54;;;;;;;5.80;5.30;;;17.60;99.90;;;;;;4977072;28;20510;-84
2023/08/28 05:43:21;;;;;;;5.03;4.60;;;17.60;99.90;;;;;;4976944;28;20475;-85
2023/08/28 05:45:48;;;;;;;6.60;4.80;;;17.70;99.90;;;;;;4978039;28;20475;-85
2023/08/28 05:48:15;;;;;;;5.40;4.90;;;17.70;99.90;;;;;;4979702;28;20479;-85
2023/08/28 05:50:45;;;;;;;6.37;4.63;;;17.70;99.90;;;;;;4977329;28;20470;-83
2023/08/28 05:53:21;;;;;;;9.90;5.13;;;17.80;99.90;;;;;;4976645;28;20969;-85
2023/08/28 05:55:50;;;;;;;5.67;5.10;;;17.80;99.90;;;;;;4977777;28;20483;-83
2023/08/28 05:58:17;;;;;;;6.20;4.57;;;17.80;99.90;;;;;;4976781;28;20475;-85
2023/08/28 06:00:49;;;;;;;5.90;4.30;;;17.80;99.90;;;;;;4977644;28;20471;-81
2023/08/28 06:03:16;;;;;;;5.50;5.00;;;17.90;99.90;;;;;;4976575;28;20541;-83
2023/08/28 06:05:44;;;;;;;5.23;4.77;;;17.90;99.90;;;;;;4976976;28;20471;-82
2023/08/28 06:08:11;;;;;;;4.10;3.80;;;17.90;99.90;;;;;;4975861;28;20541;-82
2023/08/28 06:10:40;;;;;;;4.90;4.23;;;18.00;99.90;;;;;;4976929;28;20467;-82
2023/08/28 06:13:08;;;;;;;6.57;4.50;;;18.00;99.90;;;;;;4976329;28;20471;-84
2023/08/28 06:15:35;;;;;;;7.53;4.20;;;18.00;99.90;;;;;;4977124;28;20482;-82
2023/08/28 06:18:06;;;;;;;5.57;3.53;;;18.00;99.90;;;;;;4976846;28;20596;-84
2023/08/28 06:20:35;;;;;;;4.73;4.10;;;18.00;99.90;;;;;;4976454;28;20462;-84
2023/08/28 06:23:06;;;;;;;4.10;3.80;;;18.10;99.90;;;;;;4976521;28;20936;-83
2023/08/28 06:25:34;;;;;;;7.97;5.30;;;18.10;99.90;;;;;;4976274;28;20466;-84
2023/08/28 06:28:01;;;;;;;5.10;3.93;;;18.20;99.90;;;;;;4975612;28;20496;-83
2023/08/28 06:30:29;;;;;;;4.40;3.83;;;18.10;99.90;;;;;;4975675;28;20506;-83
2023/08/28 06:32:58;;;;;;;5.90;3.70;;;18.10;99.90;;;;;;4977006;28;20482;-85
2023/08/28 06:35:25;;;;;;;3.70;3.50;;;18.20;99.90;;;;;;4974846;28;20497;-85
2023/08/28 06:37:52;;;;;;;6.33;4.13;;;18.30;99.90;;;;;;4982216;28;20471;-83
2023/08/28 06:40:19;;;;;;;4.83;3.30;;;18.30;99.90;;;;;;4981057;28;20542;-82
2023/08/28 06:42:45;;;;;;;10.33;5.43;;;18.30;99.90;;;;;;4979436;28;20976;-83
2023/08/28 06:45:13;;;;;;;5.17;3.40;;;18.30;99.90;;;;;;4977206;28;20799;-82
2023/08/28 06:47:42;;;;;;;3.60;3.30;;;18.40;99.90;;;;;;4976846;28;20462;-82
2023/08/28 06:50:09;;;;;;;4.20;3.57;;;18.50;99.90;;;;;;4976173;28;20482;-83
2023/08/28 06:52:37;;;;;;;3.87;3.47;;;18.50;99.90;;;;;;4975108;28;20470;-82
2023/08/28 06:55:04;;;;;;;6.37;3.90;;;18.60;99.90;;;;;;4979805;28;21043;-82
2023/08/28 06:57:31;;;;;;;4.40;3.10;;;18.60;99.90;;;;;;4977216;28;20479;-85
2023/08/28 06:59:58;;;;;;;12.53;3.40;;;18.50;99.90;;;;;;4975985;28;20481;-85
2023/08/28 07:02:25;;;;;;;4.00;2.77;;;18.70;99.90;;;;;;4975595;28;20525;-82
2023/08/28 07:04:53;;;;;;;7.33;3.20;;;18.70;99.90;;;;;;4975761;28;20541;-82
2023/08/28 07:07:24;;;;;;;3.10;2.80;;;18.80;99.90;;;;;;4974724;28;20467;-83
2023/08/28 07:09:51;;;;;;;4.07;3.17;;;18.80;99.90;;;;;;4975747;28;21027;-86
2023/08/28 07:12:20;;;;;;;4.37;3.10;;;18.90;99.90;;;;;;4974397;28;20479;-85
2023/08/28 07:15:26;;;;;;;4.13;2.80;;;18.90;99.90;;;;;;4974382;28;20475;-84
2023/08/28 07:17:53;;;;;;;3.20;2.90;;;19.00;99.90;;;;;;4975188;28;20478;-85
2023/08/28 07:20:24;;;;;;;2.83;2.63;;;19.00;99.90;;;;;;4975872;28;20498;-84
2023/08/28 07:22:55;;;;;;;2.73;2.50;;;19.10;99.90;;;;;;4974731;28;20969;-84
2023/08/28 07:25:22;;;;;;;2.90;2.23;;;19.10;99.90;;;;;;4975224;28;20479;-87
2023/08/28 07:27:50;;;;;;;3.30;2.33;;;19.30;99.90;;;;;;4974886;28;20547;-85
2023/08/28 07:30:17;;;;;;;4.10;2.00;;;19.70;99.90;;;;;;4975646;28;20485;-85
2023/08/28 07:32:44;;;;;;;3.73;2.13;;;20.10;99.90;;;;;;4975688;28;20799;-86
2023/08/28 07:35:11;;;;;;;4.63;2.40;;;20.40;99.90;;;;;;4975216;28;20486;-85
2023/08/28 07:37:40;;;;;;;2.07;1.80;;;20.80;99.90;;;;;;4975510;28;20562;-86
2023/08/28 07:40:09;;;;;;;5.13;2.30;;;21.20;99.90;;;;;;4974974;28;20554;-85
2023/08/28 07:42:36;;;;;;;3.53;2.17;;;21.40;99.90;;;;;;4975243;28;20542;-85
2023/08/28 07:45:04;;;;;;;3.20;2.70;;;21.70;99.90;;;;;;4975581;28;20990;-81
2023/08/28 07:47:31;;;;;;;4.90;1.87;;;21.90;99.90;;;;;;4976209;28;20467;-85
2023/08/28 07:49:58;;;;;;;4.03;2.27;;;22.00;99.90;;;;;;4975790;28;20475;-82
2023/08/28 07:52:28;;;;;;;3.50;1.70;;;22.10;99.90;;;;;;4975294;28;21032;-82
2023/08/28 07:54:56;;;;;;;2.90;2.40;;;22.20;99.90;;;;;;4974461;28;20474;-81
2023/08/28 07:57:23;;;;;;;2.33;1.67;;;22.30;99.90;;;;;;4974938;28;20475;-81
2023/08/28 07:59:50;;;;;;;3.03;2.17;;;22.40;99.90;;;;;;4975179;28;20529;-83
2023/08/28 08:02:17;;;;;;;4.33;1.50;;;22.40;99.90;;;;;;4975178;28;20556;-82
2023/08/28 08:04:44;;;;;;;6.30;1.70;;;22.40;99.90;;;;;;4974702;28;20973;-86
2023/08/28 08:07:11;;;;;;;4.07;1.67;;;22.50;99.90;;;;;;4974281;28;20775;-83
2023/08/28 08:09:41;;;;;;;4.90;1.90;;;22.50;99.90;;;;;;4975106;28;20522;-81
2023/08/28 08:12:10;;;;;;;4.73;1.87;;;22.50;99.90;;;;;;4974287;28;20498;-82
2023/08/28 08:14:37;;;;;;;2.43;2.00;;;22.60;99.90;;;;;;4975062;28;20498;-81
2023/08/28 08:17:04;;;;;;;2.00;1.80;;;22.60;99.90;;;;;;4974944;28;20811;-82
2023/08/28 08:19:34;;;;;;;2.17;1.70;;;22.60;99.90;;;;;;4975607;28;20490;-82
2023/08/28 08:22:02;;;;;;;3.97;1.70;;;22.60;99.90;;;;;;4974317;28;20509;-82
2023/08/28 08:24:29;;;;;;;2.83;1.63;;;22.60;99.90;;;;;;4974388;28;20481;-81
2023/08/28 08:27:00;;;;;;;2.63;1.80;;;22.60;99.90;;;;;;4965049;28;20502;-82
2023/08/28 08:29:28;;;;;;;2.63;1.60;;;22.60;99.90;;;;;;4990304;28;20467;-85
2023/08/28 08:31:57;;;;;;;5.33;1.90;;;22.70;99.90;;;;;;4975384;28;20475;-86
2023/08/28 08:34:25;;;;;;;2.10;1.20;;;22.70;99.90;;;;;;4975162;28;20471;-82
2023/08/28 08:36:52;;;;;;;1.63;1.33;;;22.70;99.90;;;;;;4966521;28;20509;-86
2023/08/28 08:39:19;;;;;;;3.33;1.40;;;22.70;99.90;;;;;;4973531;28;20463;-86
2023/08/28 08:41:48;;;;;;;3.13;2.30;;;22.70;99.90;;;;;;4975735;28;20474;-87
2023/08/28 08:44:15;;;;;;;2.60;2.37;;;22.70;99.90;;;;;;4974818;28;20487;-86
2023/08/28 08:46:48;;;;;;;2.43;2.23;;;22.60;99.90;;;;;;4974956;28;20474;-86
2023/08/28 08:49:20;;;;;;;2.17;1.80;;;22.40;99.90;;;;;;4974016;28;21036;-81
2023/08/28 08:51:50;;;;;;;3.03;1.50;;;22.30;99.90;;;;;;4974261;28;20486;-86
2023/08/28 08:54:22;;;;;;;1.90;1.70;;;22.30;99.90;;;;;;4973712;28;20569;-81
2023/08/28 08:56:53;;;;;;;2.97;1.50;;;22.30;99.90;;;;;;4974715;28;20486;-86
2023/08/28 08:59:21;;;;;;;3.83;1.50;;;22.40;99.90;;;;;;4974448;28;20459;-81
2023/08/28 09:01:50;;;;;;;5.03;1.70;;;22.40;99.90;;;;;;4974551;28;20478;-86
2023/08/28 09:04:18;;;;;;;2.70;1.87;;;22.50;99.90;;;;;;4973776;28;20486;-84
2023/08/28 09:06:48;;;;;;;1.87;1.40;;;22.60;99.90;;;;;;4974778;28;20471;-86
2023/08/28 09:09:16;;;;;;;2.03;1.60;;;22.60;99.90;;;;;;4970875;28;20470;-86
2023/08/28 09:11:45;;;;;;;2.00;1.50;;;22.60;99.90;;;;;;4974271;28;20475;-86
2023/08/28 09:14:12;;;;;;;3.20;1.70;;;22.70;99.90;;;;;;4973610;28;20495;-80
2023/08/28 09:16:39;;;;;;;1.93;1.60;;;22.70;99.90;;;;;;4977424;28;20821;-81
2023/08/28 09:19:31;;;;;;;2.07;1.87;;;22.80;99.90;;;;;;4977199;28;20818;-81
2023/08/28 09:22:00;;;;;;;1.90;1.50;;;22.80;99.90;;;;;;4977885;28;20945;-85
2023/08/28 09:24:27;;;;;;;3.30;1.90;;;22.80;99.90;;;;;;4978325;28;20797;-85
2023/08/28 09:26:54;;;;;;;2.17;1.40;;;22.90;99.90;;;;;;4977718;28;20467;-80
2023/08/28 09:29:23;;;;;;;3.13;1.90;;;22.90;99.90;;;;;;4978162;28;20860;-86
2023/08/28 09:31:53;;;;;;;4.20;1.83;;;22.90;99.90;;;;;;4976991;28;20481;-86
2023/08/28 09:34:40;;;;;;;2.17;1.23;;;22.90;99.90;;;;;;4978848;28;20875;-82
2023/08/28 09:37:10;;;;;;;3.23;1.83;;;22.90;99.90;;;;;;4978157;28;20968;-82
2023/08/28 09:39:41;;;;;;;1.30;1.20;;;22.90;99.90;;;;;;4974541;28;20552;-84
2023/08/28 09:42:09;;;;;;;2.53;1.70;;;23.00;99.90;;;;;;4986724;28;20853;-85
2023/08/28 09:44:37;;;;;;;2.20;1.47;;;23.00;99.90;;;;;;4977855;28;20478;-81
2023/08/28 09:47:06;;;;;;;1.60;1.50;;;23.00;99.90;;;;;;4976676;28;20475;-80
2023/08/28 09:49:43;;;;;;;2.33;1.60;;;23.00;99.90;;;;;;4978041;28;20510;-87
2023/08/28 09:52:12;;;;;;;3.73;1.40;;;23.00;99.90;;;;;;4976931;28;20549;-86
2023/08/28 09:54:39;;;;;;;3.13;1.50;;;23.00;99.90;;;;;;4977276;28;20486;-87
2023/08/28 09:57:15;;;;;;;2.73;1.80;;;23.00;99.90;;;;;;4975953;28;20485;-86
2023/08/28 09:59:43;;;;;;;2.90;1.53;;;23.00;99.90;;;;;;4976876;28;20961;-81
2023/08/28 10:02:13;;;;;;;3.20;1.67;;;23.00;99.90;;;;;;4976374;28;20471;-85
2023/08/28 10:04:43;;;;;;;3.10;1.90;;;23.00;99.90;;;;;;4977426;28;20478;-86
2023/08/28 10:07:11;;;;;;;1.93;1.43;;;23.00;99.90;;;;;;4975997;28;20483;-86
2023/08/28 10:09:43;;;;;;;2.50;1.10;;;22.90;99.90;;;;;;4976700;28;20479;-86
2023/08/28 10:12:14;;;;;;;2.07;1.30;;;23.00;99.90;;;;;;4976165;28;20988;-81
2023/08/28 10:14:42;;;;;;;4.10;1.60;;;23.00;99.90;;;;;;4973335;28;20522;-82
2023/08/28 10:17:13;;;;;;;2.77;1.60;;;22.90;99.90;;;;;;4965356;28;20470;-81
2023/08/28 10:19:46;;;;;;;1.97;1.40;;;22.90;99.90;;;;;;4988512;28;20466;-81
2023/08/28 10:22:20;;;;;;;1.90;1.20;;;22.90;99.90;;;;;;4964156;28;20560;-82
2023/08/28 10:25:15;;;;;;;1.87;1.20;;;23.00;99.90;;;;;;4976666;28;20482;-82
2023/08/28 10:28:23;;;;;;;3.47;1.50;;;22.90;99.90;;;;;;4969885;28;20474;-82
2023/08/28 10:30:53;;;;;;;2.67;1.80;;;23.00;99.90;;;;;;4974335;28;20489;-86
2023/08/28 10:33:24;;;;;;;3.73;1.50;;;23.00;99.90;;;;;;4977141;28;20478;-82
2023/08/28 10:35:55;;;;;;;2.43;2.00;;;23.10;99.90;;;;;;4975139;28;20505;-82
2023/08/28 10:38:24;;;;;;;4.30;1.60;;;23.10;99.90;;;;;;4975767;28;20482;-86
2023/08/28 10:40:52;;;;;;;4.97;2.07;;;23.10;99.90;;;;;;4975453;28;20498;-85
2023/08/28 10:43:21;;;;;;;2.40;1.60;;;23.10;99.90;;;;;;4976574;28;20475;-82
2023/08/28 10:45:50;;;;;;;1.90;1.40;;;23.00;99.90;;;;;;4975169;28;20507;-85
2023/08/28 10:48:18;;;;;;;2.70;1.60;;;23.10;99.90;;;;;;4976473;28;20477;-85
2023/08/28 10:50:46;;;;;;;1.50;1.40;;;23.10;99.90;;;;;;4968094;28;20557;-86
2023/08/28 10:53:16;;;;;;;1.97;1.53;;;23.10;99.90;;;;;;4976081;28;20558;-86
2023/08/28 10:55:53;;;;;;;3.23;2.17;;;23.10;99.90;;;;;;4968365;28;20962;-86
2023/08/28 10:58:20;;;;;;;2.60;1.67;;;23.00;99.90;;;;;;4974673;28;20477;-81
2023/08/28 11:00:50;;;;;;;2.67;2.17;;;23.00;99.90;;;;;;4976806;28;20479;-84
2023/08/28 11:03:18;;;;;;;2.47;1.50;;;22.90;99.90;;;;;;4976306;28;20478;-81
2023/08/28 11:05:45;;;;;;;1.73;1.60;;;22.90;99.90;;;;;;4974475;28;20566;-87
2023/08/28 11:08:15;;;;;;;1.87;1.40;;;22.80;99.90;;;;;;4973822;28;20482;-82
2023/08/28 11:11:05;;;;;;;1.63;1.53;;;22.70;99.90;;;;;;4975375;28;20470;-87
2023/08/28 11:13:36;;;;;;;2.10;1.73;;;22.70;99.90;;;;;;4976407;28;21061;-86
2023/08/28 11:16:04;;;;;;;1.33;1.20;;;22.70;99.90;;;;;;4975241;28;20463;-81
2023/08/28 11:18:31;;;;;;;1.57;1.47;;;22.60;99.90;;;;;;4974494;28;20475;-81
2023/08/28 11:21:03;;;;;;;1.80;1.40;;;22.50;99.90;;;;;;4975026;28;22704;-81
2023/08/28 11:23:35;;;;;;;3.60;1.30;;;22.50;99.90;;;;;;4975551;28;20546;-80
2023/08/28 11:26:05;;;;;;;1.40;1.20;;;22.50;99.90;;;;;;4974254;28;20789;-80
2023/08/28 11:28:43;;;;;;;1.30;1.17;;;22.40;99.90;;;;;;4975779;28;20498;-87
2023/08/28 11:31:10;;;;;;;1.37;1.27;;;22.40;99.90;;;;;;4975029;28;20491;-80
2023/08/28 11:33:41;;;;;;;4.10;1.80;;;22.40;99.90;;;;;;4975036;28;20478;-79
2023/08/28 11:36:10;;;;;;;2.07;1.50;;;22.40;99.90;;;;;;4974786;28;20478;-86
2023/08/28 11:38:41;;;;;;;1.90;1.27;;;22.40;99.90;;;;;;4974664;28;20470;-86
2023/08/28 11:41:10;;;;;;;4.30;1.80;;;22.40;99.90;;;;;;4974805;28;20450;-86
2023/08/28 11:43:37;;;;;;;2.50;1.40;;;22.50;99.90;;;;;;4975746;28;20559;-86
2023/08/28 11:46:05;;;;;;;1.23;1.13;;;22.40;99.90;;;;;;4975856;28;20529;-81
2023/08/28 11:48:36;;;;;;;1.30;1.10;;;22.50;99.90;;;;;;4975144;28;20471;-81
2023/08/28 11:51:04;;;;;;;1.73;1.20;;;22.50;99.90;;;;;;4976262;28;20462;-85
2023/08/28 11:53:37;;;;;;;1.53;1.30;;;22.50;99.90;;;;;;4977415;28;20463;-87
2023/08/28 11:56:06;;;;;;;4.87;2.13;;;22.50;99.90;;;;;;4975269;28;20556;-80
2023/08/28 11:58:35;;;;;;;13.23;2.70;;;22.60;99.90;;;;;;4985628;28;20530;-81
2023/08/28 12:01:05;;;;;;;4.00;1.60;;;22.60;99.90;;;;;;4976856;28;20477;-86
2023/08/28 12:03:33;;;;;;;2.37;1.40;;;22.60;99.90;;;;;;4975919;28;20479;-81
2023/08/28 12:06:06;;;;;;;1.47;1.27;;;22.60;99.90;;;;;;4976274;28;20479;-85
2023/08/28 12:08:35;;;;;;;3.67;1.40;;;22.60;99.90;;;;;;4981657;28;20478;-84
2023/08/28 12:11:03;;;;;;;3.50;1.97;;;22.60;99.90;;;;;;4976880;28;20476;-80
2023/08/28 12:13:32;;;;;;;3.87;2.53;;;22.60;99.90;;;;;;4975172;28;20666;-81
2023/08/28 12:16:15;;;;;;;3.57;1.70;;;22.60;99.90;;;;;;4974607;28;20645;-80
2023/08/28 12:18:49;;;;;;;1.67;1.57;;;22.60;99.90;;;;;;4975576;28;20485;-80
2023/08/28 12:21:17;;;;;;;2.03;1.30;;;22.60;99.90;;;;;;4973774;28;20478;-81
2023/08/28 12:23:48;;;;;;;1.70;1.60;;;22.60;99.90;;;;;;4975390;28;20497;-86
2023/08/28 12:26:18;;;;;;;3.07;1.70;;;22.70;99.90;;;;;;4975247;28;20475;-86
2023/08/28 12:28:47;;;;;;;5.10;2.00;;;22.70;99.90;;;;;;4975814;28;20558;-86
2023/08/28 12:31:14;;;;;;;2.80;1.60;;;22.70;99.90;;;;;;4974337;28;20505;-80
2023/08/28 12:33:41;;;;;;;4.63;1.63;;;22.70;99.90;;;;;;4974702;28;20483;-82
2023/08/28 12:36:19;;;;;;;3.80;1.20;;;22.70;99.90;;;;;;4975329;28;20479;-82
2023/08/28 12:38:48;;;;;;;1.87;1.17;;;22.70;99.90;;;;;;4971299;28;20491;-81
2023/08/28 12:41:15;;;;;;;1.67;1.57;;;22.70;99.90;;;;;;4984726;28;20471;-87
2023/08/28 12:43:42;;;;;;;1.20;1.10;;;22.70;99.90;;;;;;4978359;28;20558;-82
2023/08/28 12:46:13;;;;;;;1.20;1.03;;;22.70;99.90;;;;;;4974062;28;20988;-81
2023/08/28 12:48:40;;;;;;;2.50;1.53;;;22.70;99.90;;;;;;4969298;28;20541;-81
2023/08/28 12:51:07;;;;;;;4.23;2.00;;;22.70;99.90;;;;;;4992037;28;20466;-87
2023/08/28 12:53:43;;;;;;;3.23;1.87;;;22.70;99.90;;;;;;4971369;28;20471;-86
2023/08/28 12:56:10;;;;;;;1.50;1.30;;;22.70;99.90;;;;;;4978470;28;20482;-86